Time;durP1;ratioP1;P1;durP2;ratioP2;P2;SDS_P1;SDS_P2;PMS_P1;PMS_P2;Temp;Humidity;BMP_temperature;BMP_pressure;BME280_temperature;BME280_humidity;BME280_pressure;Samples;Min_cycle;Max_cycle;Signal;HPM_P1;HPM_P2
2023/09/24 04:31:58;;;;;;;1999.90;999.90;;;;;;;;;;4987635;23;20047;-68
2023/09/24 04:34:24;;;;;;;1999.90;999.90;;;;;;;;;;4954265;29;20032;-63
2023/09/24 04:36:51;;;;;;;1999.90;999.90;;;;;;;;;;4936601;29;20066;-63
2023/09/24 04:39:19;;;;;;;1999.90;999.90;;;;;;;;;;4953950;29;20062;-64
2023/09/24 04:41:47;;;;;;;1999.90;999.90;;;;;;;;;;4926724;29;20126;-64
2023/09/24 04:44:13;;;;;;;1999.90;999.90;;;;;;;;;;4934400;29;20066;-61
2023/09/24 04:46:39;;;;;;;1999.90;999.90;;;;;;;;;;4939259;29;20042;-62
2023/09/24 04:49:05;;;;;;;1999.90;999.90;;;;;;;;;;4943754;29;20042;-61
2023/09/24 04:51:33;;;;;;;1999.90;999.90;;;;;;;;;;4943238;29;20027;-62
2023/09/24 04:54:00;;;;;;;1999.90;999.90;;;;;;;;;;4942770;29;20020;-62
2023/09/24 04:56:26;;;;;;;1999.90;999.90;;;;;;;;;;4943550;29;20071;-63
2023/09/24 04:58:52;;;;;;;1999.90;999.90;;;;;;;;;;4944627;29;20383;-68
2023/09/24 05:01:18;;;;;;;1999.90;999.90;;;;;;;;;;4943104;29;20072;-66
2023/09/24 05:03:44;;;;;;;1999.90;999.90;;;;;;;;;;4943820;29;20038;-67
2023/09/24 05:06:11;;;;;;;1999.90;999.90;;;;;;;;;;4939508;29;20039;-67
2023/09/24 05:08:37;;;;;;;1999.90;999.90;;;;;;;;;;4934276;29;20028;-67
2023/09/24 05:11:04;;;;;;;1999.90;999.90;;;;;;;;;;4934585;29;20062;-62
2023/09/24 05:13:30;;;;;;;1999.90;999.90;;;;;;;;;;4934040;29;20066;-62
2023/09/24 05:16:00;;;;;;;1999.90;999.90;;;;;;;;;;4934353;29;20031;-64
2023/09/24 05:18:29;;;;;;;1999.90;999.90;;;;;;;;;;4934220;29;20031;-68
2023/09/24 05:20:56;;;;;;;1999.90;999.90;;;;;;;;;;4934146;29;20039;-68
2023/09/24 05:23:23;;;;;;;1999.90;999.90;;;;;;;;;;4933581;29;20027;-69
2023/09/24 05:25:51;;;;;;;1999.90;999.90;;;;;;;;;;4933923;29;20028;-67
2023/09/24 05:28:17;;;;;;;1999.90;999.90;;;;;;;;;;4933814;29;20480;-68
2023/09/24 05:30:43;;;;;;;1999.90;999.90;;;;;;;;;;4925219;29;20040;-67
2023/09/24 05:33:09;;;;;;;1999.90;999.90;;;;;;;;;;4915114;29;20068;-69
2023/09/24 05:35:36;;;;;;;1999.90;999.90;;;;;;;;;;4915141;29;20283;-65
2023/09/24 05:38:03;;;;;;;1999.90;999.90;;;;;;;;;;4914937;29;20083;-68
2023/09/24 05:40:29;;;;;;;1999.90;999.90;;;;;;;;;;4915092;29;20103;-69
2023/09/24 05:42:55;;;;;;;1999.90;999.90;;;;;;;;;;4914689;29;20032;-69
2023/09/24 05:45:21;;;;;;;1999.90;999.90;;;;;;;;;;4914720;29;20036;-68
2023/09/24 05:47:47;;;;;;;1999.90;999.90;;;;;;;;;;4914812;29;20044;-67
2023/09/24 05:50:13;;;;;;;1999.90;999.90;;;;;;;;;;4897452;29;20103;-68
2023/09/24 05:52:39;;;;;;;1999.90;999.90;;;;;;;;;;4914652;29;20028;-68
2023/09/24 05:55:06;;;;;;;1999.90;999.90;;;;;;;;;;4914769;29;20035;-67
2023/09/24 05:57:32;;;;;;;1999.90;999.90;;;;;;;;;;4914299;29;20060;-69
2023/09/24 05:59:58;;;;;;;1999.90;999.90;;;;;;;;;;4914735;29;20043;-67
2023/09/24 06:02:25;;;;;;;1999.90;999.90;;;;;;;;;;4914554;29;20032;-64
2023/09/24 06:04:51;;;;;;;1999.90;999.90;;;;;;;;;;4914376;29;20029;-66
2023/09/24 06:07:17;;;;;;;1999.90;999.90;;;;;;;;;;4914406;29;20102;-68
2023/09/24 06:09:43;;;;;;;1999.90;999.90;;;;;;;;;;4931908;29;20384;-66
2023/09/24 06:12:09;;;;;;;1999.90;999.90;;;;;;;;;;4952176;29;20051;-63
2023/09/24 06:14:35;;;;;;;1999.90;999.90;;;;;;;;;;4952233;29;20269;-69
2023/09/24 06:17:03;;;;;;;1999.90;999.90;;;;;;;;;;4952441;29;20027;-68
2023/09/24 06:19:29;;;;;;;1999.90;999.90;;;;;;;;;;4952195;29;20027;-64
2023/09/24 06:21:55;;;;;;;1999.90;999.90;;;;;;;;;;4952050;29;20366;-65
2023/09/24 06:24:22;;;;;;;1999.90;999.90;;;;;;;;;;4952213;29;20031;-67
2023/09/24 06:26:48;;;;;;;1999.90;999.90;;;;;;;;;;4944170;29;20438;-69
2023/09/24 06:29:14;;;;;;;1999.90;999.90;;;;;;;;;;4950579;29;20486;-68
2023/09/24 06:31:40;;;;;;;1999.90;999.90;;;;;;;;;;4952157;28;20517;-65
2023/09/24 06:34:07;;;;;;;1999.90;999.90;;;;;;;;;;4952353;28;20391;-71
2023/09/24 06:36:33;;;;;;;1999.90;999.90;;;;;;;;;;4956234;29;20483;-68
2023/09/24 06:38:59;;;;;;;1999.90;999.90;;;;;;;;;;4953389;29;20046;-61
2023/09/24 06:41:26;;;;;;;1999.90;999.90;;;;;;;;;;4933502;29;20036;-72
2023/09/24 06:43:52;;;;;;;1999.90;999.90;;;;;;;;;;4922008;29;20536;-70
2023/09/24 06:46:18;;;;;;;1999.90;999.90;;;;;;;;;;4924007;29;20571;-62
2023/09/24 06:48:44;;;;;;;1999.90;999.90;;;;;;;;;;4920267;29;20051;-64
2023/09/24 06:51:10;;;;;;;1999.90;999.90;;;;;;;;;;4920708;29;20107;-73
2023/09/24 06:53:37;;;;;;;1999.90;999.90;;;;;;;;;;4917761;29;20425;-69
2023/09/24 06:56:07;;;;;;;1999.90;999.90;;;;;;;;;;4900810;29;20036;-70
2023/09/24 06:58:36;;;;;;;1999.90;999.90;;;;;;;;;;4917733;29;20020;-68
2023/09/24 07:01:06;;;;;;;1999.90;999.90;;;;;;;;;;4918109;29;20061;-70
2023/09/24 07:03:32;;;;;;;1999.90;999.90;;;;;;;;;;4917511;29;20036;-72
2023/09/24 07:05:59;;;;;;;1999.90;999.90;;;;;;;;;;4917464;29;20047;-61
2023/09/24 07:08:26;;;;;;;1999.90;999.90;;;;;;;;;;4917449;29;20032;-69
2023/09/24 07:11:12;;;;;;;1999.90;999.90;;;;;;;;;;4917517;29;20377;-65
2023/09/24 07:13:38;;;;;;;1999.90;999.90;;;;;;;;;;4916921;29;20079;-70
2023/09/24 07:16:05;;;;;;;1999.90;999.90;;;;;;;;;;4919654;29;20107;-63
2023/09/24 07:18:32;;;;;;;1999.90;999.90;;;;;;;;;;4922011;29;20071;-75
2023/09/24 07:20:58;;;;;;;1999.90;999.90;;;;;;;;;;4918711;29;20043;-71
2023/09/24 07:23:24;;;;;;;1999.90;999.90;;;;;;;;;;4916766;29;20048;-70
2023/09/24 07:25:50;;;;;;;1999.90;999.90;;;;;;;;;;4922124;29;20035;-77
2023/09/24 07:28:16;;;;;;;1999.90;999.90;;;;;;;;;;4920322;29;20040;-72
2023/09/24 07:30:42;;;;;;;1999.90;999.90;;;;;;;;;;4919386;29;20040;-75
2023/09/24 07:33:08;;;;;;;1999.90;999.90;;;;;;;;;;4920307;29;20072;-73
2023/09/24 07:35:35;;;;;;;1999.90;999.90;;;;;;;;;;4919473;29;20039;-61
2023/09/24 07:38:01;;;;;;;1999.90;999.90;;;;;;;;;;4918820;29;20063;-64
2023/09/24 07:40:27;;;;;;;1999.90;999.90;;;;;;;;;;4917010;29;20510;-70
2023/09/24 07:42:53;;;;;;;1999.90;999.90;;;;;;;;;;4918392;29;20039;-70
2023/09/24 07:45:19;;;;;;;1999.90;999.90;;;;;;;;;;4915935;29;20035;-68
2023/09/24 07:47:45;;;;;;;1999.90;999.90;;;;;;;;;;4917027;29;20437;-66
2023/09/24 07:50:12;;;;;;;1999.90;999.90;;;;;;;;;;4916568;29;20047;-68
2023/09/24 07:52:38;;;;;;;1999.90;999.90;;;;;;;;;;4916777;29;20035;-69
2023/09/24 07:55:06;;;;;;;1999.90;999.90;;;;;;;;;;4916603;29;20032;-66
2023/09/24 07:57:32;;;;;;;1999.90;999.90;;;;;;;;;;4916496;29;20028;-66
2023/09/24 07:59:58;;;;;;;1999.90;999.90;;;;;;;;;;4916105;29;20039;-70
2023/09/24 08:02:25;;;;;;;1999.90;999.90;;;;;;;;;;4916653;29;20044;-72
2023/09/24 08:04:52;;;;;;;1999.90;999.90;;;;;;;;;;4926399;29;20028;-70
2023/09/24 08:07:18;;;;;;;1999.90;999.90;;;;;;;;;;4935144;29;20043;-66
2023/09/24 08:09:44;;;;;;;1999.90;999.90;;;;;;;;;;4935533;29;20523;-70
2023/09/24 08:12:10;;;;;;;1999.90;999.90;;;;;;;;;;4922721;29;20020;-70
2023/09/24 08:14:36;;;;;;;1999.90;999.90;;;;;;;;;;4917117;29;20504;-67
2023/09/24 08:17:03;;;;;;;1999.90;999.90;;;;;;;;;;4920524;29;20040;-70
2023/09/24 08:19:30;;;;;;;1999.90;999.90;;;;;;;;;;4935090;29;20480;-70
2023/09/24 08:21:57;;;;;;;1999.90;999.90;;;;;;;;;;4934523;29;20078;-70
2023/09/24 08:24:23;;;;;;;1999.90;999.90;;;;;;;;;;4935075;29;20060;-69
2023/09/24 08:26:49;;;;;;;1999.90;999.90;;;;;;;;;;4934433;29;20146;-65
2023/09/24 08:29:15;;;;;;;1999.90;999.90;;;;;;;;;;4924323;29;20054;-64
2023/09/24 08:31:41;;;;;;;1999.90;999.90;;;;;;;;;;4915594;29;20098;-70
2023/09/24 08:34:07;;;;;;;1999.90;999.90;;;;;;;;;;4915340;29;20028;-61
2023/09/24 08:36:33;;;;;;;1999.90;999.90;;;;;;;;;;4931187;29;20160;-70
2023/09/24 08:39:02;;;;;;;1999.90;999.90;;;;;;;;;;4922226;29;20071;-69
2023/09/24 08:41:29;;;;;;;1999.90;999.90;;;;;;;;;;4916533;29;20131;-63
2023/09/24 08:43:55;;;;;;;1999.90;999.90;;;;;;;;;;4915453;29;20040;-72
2023/09/24 08:46:22;;;;;;;1999.90;999.90;;;;;;;;;;4917255;29;20365;-66
2023/09/24 08:48:50;;;;;;;1999.90;999.90;;;;;;;;;;4915492;29;20404;-63
2023/09/24 08:51:16;;;;;;;1999.90;999.90;;;;;;;;;;4914908;29;20368;-62
2023/09/24 08:53:42;;;;;;;1999.90;999.90;;;;;;;;;;4915435;29;20027;-69
2023/09/24 08:56:08;;;;;;;1999.90;999.90;;;;;;;;;;4912380;29;20109;-67
2023/09/24 08:58:34;;;;;;;1999.90;999.90;;;;;;;;;;4921724;29;20793;-70
2023/09/24 09:01:01;;;;;;;1999.90;999.90;;;;;;;;;;4915036;29;20032;-70
2023/09/24 09:03:28;;;;;;;1999.90;999.90;;;;;;;;;;4916539;29;20245;-70
2023/09/24 09:05:54;;;;;;;1999.90;999.90;;;;;;;;;;4934092;29;20499;-68
2023/09/24 09:08:20;;;;;;;1999.90;999.90;;;;;;;;;;4934167;29;20133;-71
2023/09/24 09:10:49;;;;;;;1999.90;999.90;;;;;;;;;;4934869;29;20042;-72
2023/09/24 09:13:19;;;;;;;1999.90;999.90;;;;;;;;;;4934343;29;20122;-72
2023/09/24 09:15:50;;;;;;;1999.90;999.90;;;;;;;;;;4933829;29;20016;-73
2023/09/24 09:18:23;;;;;;;1999.90;999.90;;;;;;;;;;4932351;29;20518;-72
2023/09/24 09:20:50;;;;;;;1999.90;999.90;;;;;;;;;;4933595;29;20049;-73
2023/09/24 09:23:29;;;;;;;1999.90;999.90;;;;;;;;;;4936318;29;20554;-73
2023/09/24 09:25:55;;;;;;;1999.90;999.90;;;;;;;;;;4913754;29;20063;-77
2023/09/24 09:28:22;;;;;;;1999.90;999.90;;;;;;;;;;4928139;29;20052;-75
2023/09/24 09:31:14;;;;;;;1999.90;999.90;;;;;;;;;;4918984;29;20487;-75
2023/09/24 09:33:42;;;;;;;1999.90;999.90;;;;;;;;;;4916863;29;20060;-74
2023/09/24 09:36:32;;;;;;;1999.90;999.90;;;;;;;;;;4928703;29;20028;-75
2023/09/24 09:38:59;;;;;;;1999.90;999.90;;;;;;;;;;4922502;29;20031;-74
2023/09/24 09:41:28;;;;;;;1999.90;999.90;;;;;;;;;;4922332;29;20381;-76
2023/09/24 09:43:54;;;;;;;1999.90;999.90;;;;;;;;;;4927612;29;20028;-74
2023/09/24 09:46:22;;;;;;;1999.90;999.90;;;;;;;;;;4915588;29;20032;-73
2023/09/24 09:48:55;;;;;;;1999.90;999.90;;;;;;;;;;4927040;29;20024;-75
2023/09/24 09:51:21;;;;;;;1999.90;999.90;;;;;;;;;;4922746;29;20031;-77
2023/09/24 09:53:47;;;;;;;1999.90;999.90;;;;;;;;;;4918651;29;20020;-76
2023/09/24 09:56:14;;;;;;;1999.90;999.90;;;;;;;;;;4928671;29;20112;-76
2023/09/24 09:58:42;;;;;;;1999.90;999.90;;;;;;;;;;4922061;29;20036;-76
2023/09/24 10:01:08;;;;;;;1999.90;999.90;;;;;;;;;;4923996;29;20411;-77
2023/09/24 10:03:39;;;;;;;1999.90;999.90;;;;;;;;;;4924623;29;20411;-79
2023/09/24 10:06:07;;;;;;;1999.90;999.90;;;;;;;;;;4916501;29;20024;-77
2023/09/24 10:08:49;;;;;;;1999.90;999.90;;;;;;;;;;4929088;29;20043;-78
2023/09/24 10:11:15;;;;;;;;;;;;;;;;;;4929337;29;20082;-76
2023/09/24 10:13:44;;;;;;;1999.90;999.90;;;;;;;;;;4925399;29;20363;-78
2023/09/24 10:16:41;;;;;;;1999.90;999.90;;;;;;;;;;4934313;29;20036;-79
2023/09/24 10:19:11;;;;;;;1999.90;999.90;;;;;;;;;;4833765;29;20080;-77
2023/09/24 10:21:38;;;;;;;1999.90;999.90;;;;;;;;;;4832289;29;20121;-76
2023/09/24 10:24:10;;;;;;;1999.90;999.90;;;;;;;;;;4828264;29;20463;-78
2023/09/24 10:26:54;;;;;;;1999.90;999.90;;;;;;;;;;4838807;29;20043;-79
2023/09/24 10:29:20;;;;;;;1999.90;999.90;;;;;;;;;;4835773;29;20558;-77
2023/09/24 10:32:05;;;;;;;1999.90;999.90;;;;;;;;;;4829602;29;20149;-77
2023/09/24 10:35:09;;;;;;;1999.90;999.90;;;;;;;;;;4843746;29;20053;-79
2023/09/24 10:37:37;;;;;;;1999.90;999.90;;;;;;;;;;4788865;30;20118;-79
2023/09/24 10:40:04;;;;;;;1999.90;999.90;;;;;;;;;;4788439;30;20075;-76
2023/09/24 10:42:32;;;;;;;1999.90;999.90;;;;;;;;;;4788064;30;20039;-78
2023/09/24 10:45:06;;;;;;;1999.90;999.90;;;;;;;;;;4788401;29;20051;-75
2023/09/24 10:47:51;;;;;;;1999.90;999.90;;;;;;;;;;4788316;30;20039;-76
2023/09/24 10:50:21;;;;;;;1999.90;999.90;;;;;;;;;;4788150;30;20036;-74
2023/09/24 10:53:02;;;;;;;1999.90;999.90;;;;;;;;;;4788016;29;20043;-76
2023/09/24 10:57:55;;;;;;;1999.90;999.90;;;;;;;;;;4861326;29;20046;-76
2023/09/24 11:00:22;;;;;;;1999.90;999.90;;;;;;;;;;4861155;29;20034;-78
2023/09/24 11:02:58;;;;;;;1999.90;999.90;;;;;;;;;;4861181;29;20097;-76
2023/09/24 11:05:25;;;;;;;1999.90;999.90;;;;;;;;;;4850450;29;20046;-76
2023/09/24 11:07:51;;;;;;;1999.90;999.90;;;;;;;;;;4857404;29;20109;-77
2023/09/24 11:10:20;;;;;;;1999.90;999.90;;;;;;;;;;4828459;29;20421;-76
2023/09/24 11:12:49;;;;;;;1999.90;999.90;;;;;;;;;;4925888;29;20074;-75
2023/09/24 11:15:17;;;;;;;1999.90;999.90;;;;;;;;;;4928977;29;20028;-75
2023/09/24 11:17:45;;;;;;;1999.90;999.90;;;;;;;;;;4932962;29;20087;-76
2023/09/24 11:20:12;;;;;;;1999.90;999.90;;;;;;;;;;4921205;29;20095;-76
2023/09/24 11:22:38;;;;;;;1999.90;999.90;;;;;;;;;;4929683;29;20406;-75
2023/09/24 11:25:08;;;;;;;1999.90;999.90;;;;;;;;;;4923735;29;20383;-73
2023/09/24 11:27:35;;;;;;;1999.90;999.90;;;;;;;;;;4922894;29;20069;-77
2023/09/24 11:30:03;;;;;;;1999.90;999.90;;;;;;;;;;4923779;29;20095;-76
2023/09/24 11:32:29;;;;;;;1999.90;999.90;;;;;;;;;;4918834;29;20067;-75
2023/09/24 11:35:06;;;;;;;1999.90;999.90;;;;;;;;;;4927816;29;20095;-76
2023/09/24 11:37:51;;;;;;;1999.90;999.90;;;;;;;;;;4926807;29;20031;-74
2023/09/24 11:40:36;;;;;;;1999.90;999.90;;;;;;;;;;4917587;29;20020;-77
2023/09/24 11:43:02;;;;;;;1999.90;999.90;;;;;;;;;;4926509;29;20401;-77
2023/09/24 11:45:46;;;;;;;1999.90;999.90;;;;;;;;;;4926058;29;20031;-75
2023/09/24 11:48:19;;;;;;;1999.90;999.90;;;;;;;;;;4917936;29;20138;-77
2023/09/24 11:50:47;;;;;;;1999.90;999.90;;;;;;;;;;4922246;29;20035;-77
2023/09/24 11:53:13;;;;;;;1999.90;999.90;;;;;;;;;;4923859;29;20035;-76
2023/09/24 11:55:41;;;;;;;1999.90;999.90;;;;;;;;;;4922186;29;20016;-75
2023/09/24 11:58:07;;;;;;;1999.90;999.90;;;;;;;;;;4933405;29;20028;-76
2023/09/24 12:00:34;;;;;;;1999.90;999.90;;;;;;;;;;4935884;29;20040;-77
2023/09/24 12:03:01;;;;;;;1999.90;999.90;;;;;;;;;;4935757;29;20394;-77
2023/09/24 12:05:28;;;;;;;1999.90;999.90;;;;;;;;;;4924010;29;20028;-77
2023/09/24 12:07:54;;;;;;;1999.90;999.90;;;;;;;;;;4916160;29;20076;-73
2023/09/24 12:10:21;;;;;;;1999.90;999.90;;;;;;;;;;4919787;29;20063;-76
2023/09/24 12:12:49;;;;;;;1999.90;999.90;;;;;;;;;;4920236;29;20034;-74
2023/09/24 12:15:15;;;;;;;1999.90;999.90;;;;;;;;;;4917511;29;20389;-76
2023/09/24 12:17:42;;;;;;;1999.90;999.90;;;;;;;;;;4924199;29;20028;-73
2023/09/24 12:20:09;;;;;;;1999.90;999.90;;;;;;;;;;4915145;29;20020;-76
2023/09/24 12:22:35;;;;;;;1999.90;999.90;;;;;;;;;;4925749;29;20032;-78
2023/09/24 12:25:01;;;;;;;1999.90;999.90;;;;;;;;;;4916235;29;20024;-78
2023/09/24 12:27:30;;;;;;;1999.90;999.90;;;;;;;;;;4915777;29;20040;-73
2023/09/24 12:29:56;;;;;;;1999.90;999.90;;;;;;;;;;4914929;29;20047;-71
2023/09/24 12:32:23;;;;;;;1999.90;999.90;;;;;;;;;;4915192;29;20047;-74
2023/09/24 12:34:50;;;;;;;1999.90;999.90;;;;;;;;;;4915682;29;20021;-74
2023/09/24 12:37:16;;;;;;;1999.90;999.90;;;;;;;;;;4916072;29;20040;-69
2023/09/24 12:39:42;;;;;;;1999.90;999.90;;;;;;;;;;4915715;29;20087;-71
2023/09/24 12:42:08;;;;;;;1999.90;999.90;;;;;;;;;;4915726;29;20043;-72
2023/09/24 12:44:34;;;;;;;1999.90;999.90;;;;;;;;;;4915832;29;20028;-72
2023/09/24 12:47:00;;;;;;;1999.90;999.90;;;;;;;;;;4915646;29;20476;-74
2023/09/24 12:49:26;;;;;;;1999.90;999.90;;;;;;;;;;4897229;29;20136;-74
2023/09/24 12:51:52;;;;;;;1999.90;999.90;;;;;;;;;;4896673;29;20106;-75
2023/09/24 12:54:18;;;;;;;1999.90;999.90;;;;;;;;;;4913703;29;20024;-73
2023/09/24 12:56:44;;;;;;;1999.90;999.90;;;;;;;;;;4915061;29;20380;-73
2023/09/24 12:59:10;;;;;;;1999.90;999.90;;;;;;;;;;4915572;29;20103;-73
2023/09/24 13:01:36;;;;;;;1999.90;999.90;;;;;;;;;;4915054;29;20128;-73
2023/09/24 13:04:03;;;;;;;1999.90;999.90;;;;;;;;;;4898380;29;20032;-71
2023/09/24 13:06:29;;;;;;;1999.90;999.90;;;;;;;;;;4915472;29;20032;-69
2023/09/24 13:08:55;;;;;;;1999.90;999.90;;;;;;;;;;4898118;29;20029;-72
2023/09/24 13:11:21;;;;;;;1999.90;999.90;;;;;;;;;;4934373;29;20027;-70
2023/09/24 13:13:47;;;;;;;1999.90;999.90;;;;;;;;;;4953318;29;20086;-71
2023/09/24 13:16:13;;;;;;;1999.90;999.90;;;;;;;;;;4953305;29;20415;-75
2023/09/24 13:18:40;;;;;;;1999.90;999.90;;;;;;;;;;4950993;29;20027;-69
2023/09/24 13:21:06;;;;;;;1999.90;999.90;;;;;;;;;;4944086;29;20495;-71
2023/09/24 13:23:32;;;;;;;1999.90;999.90;;;;;;;;;;4926998;29;20626;-72
2023/09/24 13:25:58;;;;;;;1999.90;999.90;;;;;;;;;;4930866;29;20522;-74
2023/09/24 13:28:24;;;;;;;1999.90;999.90;;;;;;;;;;4921272;29;20040;-72
2023/09/24 13:30:50;;;;;;;1999.90;999.90;;;;;;;;;;4936786;28;20044;-72
2023/09/24 13:33:16;;;;;;;1999.90;999.90;;;;;;;;;;4949878;29;20039;-71
2023/09/24 13:35:46;;;;;;;1999.90;999.90;;;;;;;;;;4950135;29;20110;-73
2023/09/24 13:38:12;;;;;;;1999.90;999.90;;;;;;;;;;4950808;29;20506;-73
2023/09/24 13:40:38;;;;;;;1999.90;999.90;;;;;;;;;;4942793;29;20126;-73
2023/09/24 13:43:05;;;;;;;1999.90;999.90;;;;;;;;;;4952652;28;20038;-72
2023/09/24 13:45:32;;;;;;;1999.90;999.90;;;;;;;;;;4952282;29;20046;-72
2023/09/24 13:47:59;;;;;;;1999.90;999.90;;;;;;;;;;4950382;29;20067;-73
2023/09/24 13:50:25;;;;;;;1999.90;999.90;;;;;;;;;;4950227;29;20027;-73
2023/09/24 13:52:51;;;;;;;1999.90;999.90;;;;;;;;;;4949626;29;20069;-73
2023/09/24 13:55:17;;;;;;;1999.90;999.90;;;;;;;;;;4943178;29;20024;-74
2023/09/24 13:57:43;;;;;;;1999.90;999.90;;;;;;;;;;4916479;29;20095;-74
2023/09/24 14:00:10;;;;;;;1999.90;999.90;;;;;;;;;;4918705;29;20028;-75
2023/09/24 14:02:36;;;;;;;1999.90;999.90;;;;;;;;;;4916920;29;20040;-71
2023/09/24 14:05:02;;;;;;;1999.90;999.90;;;;;;;;;;4917057;29;20104;-74
2023/09/24 14:07:29;;;;;;;1999.90;999.90;;;;;;;;;;4917120;29;20031;-73
2023/09/24 14:12:45;;;;;;;1999.90;999.90;;;;;;;;;;4913648;29;20535;-72
2023/09/24 14:15:11;;;;;;;1999.90;999.90;;;;;;;;;;4914000;29;20036;-71
2023/09/24 14:17:38;;;;;;;1999.90;999.90;;;;;;;;;;4914408;29;20036;-71
2023/09/24 14:20:05;;;;;;;1999.90;999.90;;;;;;;;;;4917627;29;20392;-72
2023/09/24 14:22:33;;;;;;;1999.90;999.90;;;;;;;;;;4916234;29;20031;-70
2023/09/24 14:25:03;;;;;;;1999.90;999.90;;;;;;;;;;4932959;29;20024;-72
2023/09/24 14:27:29;;;;;;;1999.90;999.90;;;;;;;;;;4932158;29;20039;-71
2023/09/24 14:29:55;;;;;;;1999.90;999.90;;;;;;;;;;4932631;29;20091;-72
2023/09/24 14:32:21;;;;;;;1999.90;999.90;;;;;;;;;;4929702;29;20044;-73
2023/09/24 14:34:47;;;;;;;1999.90;999.90;;;;;;;;;;4931541;29;20019;-72
2023/09/24 14:37:13;;;;;;;1999.90;999.90;;;;;;;;;;4933026;29;20055;-72
2023/09/24 14:39:39;;;;;;;1999.90;999.90;;;;;;;;;;4932982;29;20020;-73
2023/09/24 14:42:05;;;;;;;1999.90;999.90;;;;;;;;;;4932222;29;20020;-73
2023/09/24 14:44:35;;;;;;;1999.90;999.90;;;;;;;;;;4931771;29;20099;-71
2023/09/24 14:47:02;;;;;;;1999.90;999.90;;;;;;;;;;4948137;29;20050;-71
2023/09/24 14:49:31;;;;;;;1999.90;999.90;;;;;;;;;;4946179;29;20023;-70
2023/09/24 14:51:57;;;;;;;1999.90;999.90;;;;;;;;;;4913307;29;20503;-72
2023/09/24 14:54:24;;;;;;;1999.90;999.90;;;;;;;;;;4914508;29;20028;-73
2023/09/24 14:56:50;;;;;;;1999.90;999.90;;;;;;;;;;4920959;29;20073;-73
2023/09/24 14:59:16;;;;;;;1999.90;999.90;;;;;;;;;;4929821;29;20043;-75
2023/09/24 15:01:42;;;;;;;1999.90;999.90;;;;;;;;;;4936127;29;20042;-73
2023/09/24 15:04:08;;;;;;;1999.90;999.90;;;;;;;;;;4928007;29;20038;-78
2023/09/24 15:06:34;;;;;;;1999.90;999.90;;;;;;;;;;4916647;29;20044;-74
2023/09/24 15:09:00;;;;;;;1999.90;999.90;;;;;;;;;;4916897;29;20036;-74
2023/09/24 15:11:26;;;;;;;1999.90;999.90;;;;;;;;;;4920283;29;20388;-73
2023/09/24 15:13:53;;;;;;;1999.90;999.90;;;;;;;;;;4925696;29;20463;-73
2023/09/24 15:16:19;;;;;;;1999.90;999.90;;;;;;;;;;4922516;29;20448;-73
2023/09/24 15:18:45;;;;;;;1999.90;999.90;;;;;;;;;;4916946;29;20059;-73
2023/09/24 15:21:12;;;;;;;1999.90;999.90;;;;;;;;;;4921710;29;20027;-74
2023/09/24 15:23:38;;;;;;;1999.90;999.90;;;;;;;;;;4935738;29;20023;-75
2023/09/24 15:26:05;;;;;;;1999.90;999.90;;;;;;;;;;4935867;29;20056;-76
2023/09/24 15:28:32;;;;;;;1999.90;999.90;;;;;;;;;;4933157;29;20042;-73
2023/09/24 15:30:58;;;;;;;1999.90;999.90;;;;;;;;;;4930817;29;20123;-74
2023/09/24 15:33:24;;;;;;;1999.90;999.90;;;;;;;;;;4916307;29;20391;-73
2023/09/24 15:35:50;;;;;;;1999.90;999.90;;;;;;;;;;4928784;29;20095;-73
2023/09/24 15:38:16;;;;;;;1999.90;999.90;;;;;;;;;;4927958;29;20472;-74
2023/09/24 15:40:42;;;;;;;1999.90;999.90;;;;;;;;;;4920137;29;20452;-74
2023/09/24 15:43:09;;;;;;;1999.90;999.90;;;;;;;;;;4920783;29;20115;-75
2023/09/24 15:45:37;;;;;;;1999.90;999.90;;;;;;;;;;4925241;29;20539;-72
2023/09/24 15:48:04;;;;;;;1999.90;999.90;;;;;;;;;;4916371;29;20068;-76
2023/09/24 15:50:32;;;;;;;1999.90;999.90;;;;;;;;;;4924165;29;20103;-74
2023/09/24 15:52:58;;;;;;;1999.90;999.90;;;;;;;;;;4921665;29;20031;-73
2023/09/24 15:55:24;;;;;;;1999.90;999.90;;;;;;;;;;4917258;29;20522;-73
2023/09/24 15:57:50;;;;;;;1999.90;999.90;;;;;;;;;;4912610;29;20032;-73
2023/09/24 16:00:18;;;;;;;1999.90;999.90;;;;;;;;;;4924812;29;20039;-71
2023/09/24 16:02:44;;;;;;;1999.90;999.90;;;;;;;;;;4942737;28;20047;-73
2023/09/24 16:05:11;;;;;;;1999.90;999.90;;;;;;;;;;4943178;29;20066;-72
2023/09/24 16:07:37;;;;;;;1999.90;999.90;;;;;;;;;;4934084;29;20076;-72
2023/09/24 16:10:05;;;;;;;1999.90;999.90;;;;;;;;;;4928775;29;20090;-71
2023/09/24 16:12:31;;;;;;;1999.90;999.90;;;;;;;;;;4918023;29;20024;-72
2023/09/24 16:14:57;;;;;;;1999.90;999.90;;;;;;;;;;4929183;29;20023;-73
2023/09/24 16:17:24;;;;;;;1999.90;999.90;;;;;;;;;;4917756;29;20047;-72
2023/09/24 16:19:50;;;;;;;1999.90;999.90;;;;;;;;;;4928525;29;20032;-73
2023/09/24 16:22:16;;;;;;;1999.90;999.90;;;;;;;;;;4935169;29;20046;-74
2023/09/24 16:24:42;;;;;;;1999.90;999.90;;;;;;;;;;4934786;29;20373;-70
2023/09/24 16:27:08;;;;;;;1999.90;999.90;;;;;;;;;;4935203;29;20395;-73
2023/09/24 16:29:34;;;;;;;1999.90;999.90;;;;;;;;;;4934746;29;20035;-70
2023/09/24 16:32:01;;;;;;;1999.90;999.90;;;;;;;;;;4934477;29;20126;-70
2023/09/24 16:34:28;;;;;;;1999.90;999.90;;;;;;;;;;4934958;29;20558;-74
2023/09/24 16:36:54;;;;;;;1999.90;999.90;;;;;;;;;;4934411;29;20071;-74
2023/09/24 16:39:21;;;;;;;1999.90;999.90;;;;;;;;;;4934799;29;20028;-73
2023/09/24 16:41:47;;;;;;;1999.90;999.90;;;;;;;;;;4934552;29;20050;-72
2023/09/24 16:44:13;;;;;;;1999.90;999.90;;;;;;;;;;4934161;29;20051;-74
2023/09/24 16:46:39;;;;;;;1999.90;999.90;;;;;;;;;;4934712;29;20036;-72
2023/09/24 16:49:05;;;;;;;1999.90;999.90;;;;;;;;;;4934631;29;20031;-75
2023/09/24 16:51:31;;;;;;;1999.90;999.90;;;;;;;;;;4934130;29;20024;-74
2023/09/24 16:53:58;;;;;;;1999.90;999.90;;;;;;;;;;4934433;29;20383;-70
2023/09/24 16:56:24;;;;;;;1999.90;999.90;;;;;;;;;;4934210;29;20031;-73
2023/09/24 16:58:50;;;;;;;1999.90;999.90;;;;;;;;;;4933363;29;20062;-72
2023/09/24 17:01:17;;;;;;;1999.90;999.90;;;;;;;;;;4932854;29;20459;-70
2023/09/24 17:03:44;;;;;;;1999.90;999.90;;;;;;;;;;4933457;29;20028;-72
2023/09/24 17:06:11;;;;;;;1999.90;999.90;;;;;;;;;;4933966;29;20020;-71
2023/09/24 17:08:37;;;;;;;1999.90;999.90;;;;;;;;;;4934101;29;20043;-71
2023/09/24 17:11:04;;;;;;;1999.90;999.90;;;;;;;;;;4934073;29;20360;-71
2023/09/24 17:13:30;;;;;;;1999.90;999.90;;;;;;;;;;4933909;29;20083;-73
2023/09/24 17:15:56;;;;;;;1999.90;999.90;;;;;;;;;;4934091;29;20542;-68
2023/09/24 17:18:22;;;;;;;1999.90;999.90;;;;;;;;;;4932971;29;20487;-70
2023/09/24 17:20:48;;;;;;;1999.90;999.90;;;;;;;;;;4933360;29;20472;-74
2023/09/24 17:23:15;;;;;;;1999.90;999.90;;;;;;;;;;4933084;29;20049;-70
2023/09/24 17:25:42;;;;;;;1999.90;999.90;;;;;;;;;;4933793;29;20028;-75
2023/09/24 17:28:08;;;;;;;1999.90;999.90;;;;;;;;;;4932698;29;20040;-73
2023/09/24 17:30:34;;;;;;;1999.90;999.90;;;;;;;;;;4933093;29;20043;-79
2023/09/24 17:33:02;;;;;;;1999.90;999.90;;;;;;;;;;4933568;29;20492;-73
2023/09/24 17:35:28;;;;;;;1999.90;999.90;;;;;;;;;;4932412;29;20031;-75
2023/09/24 17:37:57;;;;;;;1999.90;999.90;;;;;;;;;;4933095;29;20034;-79
2023/09/24 17:40:23;;;;;;;1999.90;999.90;;;;;;;;;;4933362;29;20543;-79
2023/09/24 17:42:49;;;;;;;1999.90;999.90;;;;;;;;;;4933856;29;20032;-82
2023/09/24 17:45:15;;;;;;;1999.90;999.90;;;;;;;;;;4933042;29;20020;-83
2023/09/24 17:47:42;;;;;;;1999.90;999.90;;;;;;;;;;4933576;29;20043;-77
2023/09/24 17:50:08;;;;;;;1999.90;999.90;;;;;;;;;;4934278;29;20490;-80
2023/09/24 17:52:34;;;;;;;1999.90;999.90;;;;;;;;;;4933578;29;20031;-77
2023/09/24 17:55:00;;;;;;;1999.90;999.90;;;;;;;;;;4932745;29;20112;-83
2023/09/24 17:57:26;;;;;;;1999.90;999.90;;;;;;;;;;4923609;29;20567;-74
2023/09/24 17:59:53;;;;;;;1999.90;999.90;;;;;;;;;;4920829;29;20111;-82
2023/09/24 18:02:19;;;;;;;1999.90;999.90;;;;;;;;;;4918564;29;20115;-76
2023/09/24 18:04:45;;;;;;;1999.90;999.90;;;;;;;;;;4912612;29;20052;-78
2023/09/24 18:07:11;;;;;;;1999.90;999.90;;;;;;;;;;4925123;29;20043;-74
2023/09/24 18:09:37;;;;;;;1999.90;999.90;;;;;;;;;;4923541;29;20058;-73
2023/09/24 18:12:03;;;;;;;1999.90;999.90;;;;;;;;;;4923461;29;20028;-74
2023/09/24 18:14:33;;;;;;;1999.90;999.90;;;;;;;;;;4918578;29;20559;-76
2023/09/24 18:17:00;;;;;;;1999.90;999.90;;;;;;;;;;4913955;29;20055;-79
2023/09/24 18:19:29;;;;;;;1999.90;999.90;;;;;;;;;;4913532;29;20067;-74